Time;durP1;ratioP1;P1;durP2;ratioP2;P2;SDS_P1;SDS_P2;PMS_P1;PMS_P2;Temp;Humidity;BMP_temperature;BMP_pressure;BME280_temperature;BME280_humidity;BME280_pressure;Samples;Min_cycle;Max_cycle;Signal;HPM_P1;HPM_P2
2021/08/28 00:01:35;;;;;;;6.45;1.98;;;28.30;99.90;;;;;;4173933;28;20045;-63
2021/08/28 00:03:40;;;;;;;4.53;1.70;;;28.30;99.90;;;;;;4170938;28;20057;-63
2021/08/28 00:05:44;;;;;;;6.95;1.90;;;28.30;99.90;;;;;;4174153;28;20107;-63
2021/08/28 00:07:48;;;;;;;5.63;1.77;;;28.30;99.90;;;;;;4153771;28;20045;-63
2021/08/28 00:09:53;;;;;;;7.70;1.92;;;28.30;99.90;;;;;;4156561;28;20045;-64
2021/08/28 00:11:58;;;;;;;7.18;1.88;;;28.30;99.90;;;;;;4175771;28;20052;-63
2021/08/28 00:14:02;;;;;;;5.82;1.98;;;28.30;99.90;;;;;;4175655;28;20152;-63
2021/08/28 00:16:06;;;;;;;4.07;1.52;;;28.40;99.90;;;;;;4158404;28;20053;-63
2021/08/28 00:18:10;;;;;;;4.63;1.60;;;28.50;99.90;;;;;;4158093;28;20041;-64
2021/08/28 00:20:15;;;;;;;4.18;1.50;;;28.60;99.90;;;;;;4163650;28;20520;-67
2021/08/28 00:22:20;;;;;;;5.93;1.48;;;28.70;99.90;;;;;;4156494;28;20045;-62
2021/08/28 00:24:26;;;;;;;3.40;1.42;;;28.70;99.90;;;;;;4172695;28;20049;-63
2021/08/28 00:26:30;;;;;;;3.28;1.45;;;28.80;99.90;;;;;;4176180;28;20369;-64
2021/08/28 00:28:35;;;;;;;2.08;1.05;;;28.90;99.90;;;;;;4160573;28;20048;-64
2021/08/28 00:30:40;;;;;;;2.33;1.25;;;29.00;99.90;;;;;;4164254;28;20055;-64
2021/08/28 00:33:24;;;;;;;3.50;1.58;;;29.00;99.90;;;;;;4146180;28;20057;-65
2021/08/28 00:35:28;;;;;;;2.38;1.17;;;29.00;99.90;;;;;;4137466;28;20060;-65
2021/08/28 00:37:33;;;;;;;3.05;1.73;;;29.00;99.90;;;;;;4129284;28;20048;-65
2021/08/28 00:39:37;;;;;;;2.78;1.30;;;29.00;99.90;;;;;;4115260;28;20096;-64
2021/08/28 00:41:43;;;;;;;1.08;0.85;;;28.90;99.90;;;;;;4141259;28;20046;-65
2021/08/28 00:43:47;;;;;;;1.70;1.00;;;28.90;99.90;;;;;;4137490;28;20042;-65
2021/08/28 00:45:52;;;;;;;2.25;0.90;;;28.90;99.90;;;;;;4137990;28;20069;-65
2021/08/28 00:47:58;;;;;;;3.45;1.08;;;28.90;99.90;;;;;;4131914;28;20081;-65
2021/08/28 00:50:02;;;;;;;1.92;1.10;;;29.00;99.90;;;;;;4135934;28;20042;-65
2021/08/28 00:52:15;;;;;;;4.15;1.33;;;29.00;99.90;;;;;;4138634;28;20037;-65
2021/08/28 00:54:21;;;;;;;1.73;1.00;;;29.00;99.90;;;;;;4137147;28;20461;-65
2021/08/28 00:56:25;;;;;;;1.75;1.02;;;29.00;99.90;;;;;;4136652;28;20524;-65
2021/08/28 00:58:30;;;;;;;1.52;0.65;;;29.00;99.90;;;;;;4115779;28;20445;-65
2021/08/28 01:00:53;;;;;;;2.58;0.90;;;29.00;99.90;;;;;;4134658;28;20095;-65
2021/08/28 01:02:58;;;;;;;1.83;0.80;;;29.00;99.90;;;;;;4140815;28;20521;-65
2021/08/28 01:05:29;;;;;;;1.83;0.73;;;29.20;99.90;;;;;;4146527;28;20050;-66
2021/08/28 01:07:51;;;;;;;2.92;0.82;;;29.10;99.90;;;;;;4136121;28;20578;-66
2021/08/28 01:10:10;;;;;;;1.10;0.70;;;29.20;99.90;;;;;;4180558;28;20350;-66
2021/08/28 01:12:32;;;;;;;1.05;0.77;;;29.30;99.90;;;;;;4172626;28;20051;-65
2021/08/28 01:14:47;;;;;;;2.40;0.60;;;29.20;99.90;;;;;;4155950;28;20092;-65
2021/08/28 01:16:57;;;;;;;1.60;0.70;;;29.30;99.90;;;;;;4155573;28;20527;-65
2021/08/28 01:19:03;;;;;;;2.38;0.80;;;29.30;99.90;;;;;;4154347;28;20061;-65
2021/08/28 01:21:21;;;;;;;1.17;0.85;;;29.30;99.90;;;;;;4155362;28;20053;-64
2021/08/28 01:23:45;;;;;;;3.10;0.75;;;29.40;99.90;;;;;;4171516;28;20068;-68
2021/08/28 01:26:14;;;;;;;1.63;0.68;;;29.40;99.90;;;;;;4171807;28;20578;-64
2021/08/28 01:28:19;;;;;;;3.13;0.63;;;29.50;99.90;;;;;;4166344;28;20478;-64
2021/08/28 01:30:24;;;;;;;1.77;1.00;;;29.40;99.90;;;;;;4182084;28;20786;-66
2021/08/28 01:32:29;;;;;;;1.30;0.68;;;29.50;99.90;;;;;;4169470;28;20542;-66
2021/08/28 01:34:33;;;;;;;1.25;0.60;;;29.50;99.90;;;;;;4156381;28;20500;-66
2021/08/28 01:36:39;;;;;;;1.50;0.70;;;29.60;99.90;;;;;;4155382;28;20049;-66
2021/08/28 01:38:53;;;;;;;1.98;0.95;;;29.60;99.90;;;;;;4176602;28;20076;-65
2021/08/28 01:40:59;;;;;;;1.63;0.55;;;29.70;99.90;;;;;;4172555;28;20099;-65
2021/08/28 01:43:05;;;;;;;2.38;0.80;;;29.80;99.90;;;;;;4173759;28;20045;-66
2021/08/28 01:45:33;;;;;;;3.45;1.55;;;29.90;99.90;;;;;;4153959;28;20049;-65
2021/08/28 01:48:18;;;;;;;2.28;0.90;;;30.00;99.90;;;;;;4133749;28;20042;-66
2021/08/28 01:50:24;;;;;;;2.28;0.75;;;30.20;99.90;;;;;;4146168;28;20049;-65
2021/08/28 01:52:39;;;;;;;3.47;0.70;;;30.20;99.90;;;;;;4148219;28;20071;-65
2021/08/28 01:54:44;;;;;;;1.45;0.57;;;30.30;99.90;;;;;;4132235;28;20042;-65
2021/08/28 01:56:50;;;;;;;2.20;0.80;;;30.20;99.90;;;;;;4154775;28;20053;-66
2021/08/28 01:58:57;;;;;;;1.63;0.55;;;30.20;99.90;;;;;;4150592;28;20041;-66
2021/08/28 02:01:21;;;;;;;1.45;0.77;;;30.20;99.90;;;;;;4148299;28;20103;-67
2021/08/28 02:03:26;;;;;;;0.98;0.50;;;30.20;99.90;;;;;;4163733;28;20490;-66
2021/08/28 02:05:32;;;;;;;2.15;0.90;;;30.20;99.90;;;;;;4162168;28;20050;-66
2021/08/28 02:08:06;;;;;;;1.07;0.50;;;30.10;99.90;;;;;;4145063;28;20056;-66
2021/08/28 02:10:34;;;;;;;3.33;0.70;;;30.20;99.90;;;;;;4144682;28;20295;-66
2021/08/28 02:12:44;;;;;;;2.10;0.70;;;30.20;99.90;;;;;;4144091;28;20527;-66
2021/08/28 02:15:14;;;;;;;1.40;0.70;;;30.30;99.70;;;;;;4164918;28;20417;-66
2021/08/28 02:17:20;;;;;;;0.98;0.43;;;30.40;99.50;;;;;;4145888;28;20295;-66
2021/08/28 02:19:31;;;;;;;4.05;1.00;;;30.60;99.00;;;;;;4135668;28;20054;-66
2021/08/28 02:21:51;;;;;;;1.15;0.77;;;30.70;98.70;;;;;;4173784;28;20060;-66
2021/08/28 02:24:12;;;;;;;1.52;0.95;;;30.70;98.30;;;;;;4158658;28;20141;-66
2021/08/28 02:26:22;;;;;;;1.80;1.00;;;30.70;98.50;;;;;;4159963;28;20049;-67
2021/08/28 02:28:33;;;;;;;2.53;1.00;;;30.70;98.30;;;;;;4143629;28;20049;-66
2021/08/28 02:30:39;;;;;;;2.92;0.90;;;30.60;98.10;;;;;;4158724;28;20103;-66
2021/08/28 02:32:49;;;;;;;2.85;0.90;;;30.70;98.50;;;;;;4151485;28;20370;-67
2021/08/28 02:34:55;;;;;;;1.20;0.70;;;30.90;98.40;;;;;;4159464;28;20053;-67
2021/08/28 02:37:00;;;;;;;1.35;0.70;;;30.90;98.10;;;;;;4159057;28;20049;-67
2021/08/28 02:39:05;;;;;;;1.83;0.70;;;30.90;97.60;;;;;;4147561;28;20044;-67
2021/08/28 02:41:12;;;;;;;1.38;0.82;;;30.90;97.60;;;;;;4151226;28;20123;-66
2021/08/28 02:43:16;;;;;;;6.25;0.88;;;30.80;97.60;;;;;;4158472;28;20053;-66
2021/08/28 02:45:26;;;;;;;2.35;0.65;;;30.70;97.70;;;;;;4158464;28;20045;-66
2021/08/28 02:47:37;;;;;;;3.45;0.70;;;30.80;97.40;;;;;;4152959;28;20571;-66
2021/08/28 02:49:42;;;;;;;4.45;0.90;;;30.80;97.40;;;;;;4148036;28;20083;-67
2021/08/28 02:52:05;;;;;;;2.22;0.70;;;31.00;97.50;;;;;;4190991;28;20052;-67
2021/08/28 02:54:11;;;;;;;1.55;0.80;;;31.20;97.10;;;;;;4158075;28;20056;-67
2021/08/28 02:56:16;;;;;;;0.55;0.50;;;31.30;97.00;;;;;;4191457;28;20053;-67
2021/08/28 02:58:21;;;;;;;1.60;0.68;;;31.10;96.90;;;;;;4121557;28;20061;-67
2021/08/28 03:00:27;;;;;;;1.95;0.90;;;31.10;96.60;;;;;;4132667;28;20464;-67
2021/08/28 03:02:32;;;;;;;2.05;0.60;;;31.10;96.70;;;;;;4131921;28;20507;-67
2021/08/28 03:04:38;;;;;;;3.22;0.80;;;31.10;96.70;;;;;;4146929;28;20042;-67
2021/08/28 03:06:42;;;;;;;2.17;0.70;;;31.10;96.50;;;;;;4123209;28;20556;-67
2021/08/28 03:08:47;;;;;;;1.55;0.68;;;31.10;96.60;;;;;;4137072;28;20044;-68
2021/08/28 03:10:52;;;;;;;3.10;0.52;;;31.10;96.30;;;;;;4162896;28;20083;-67
2021/08/28 03:12:57;;;;;;;0.38;0.30;;;31.10;96.40;;;;;;4146114;28;20547;-66
2021/08/28 03:15:02;;;;;;;1.05;0.60;;;31.20;96.30;;;;;;4153502;28;20057;-67
2021/08/28 03:17:15;;;;;;;2.60;0.60;;;31.40;96.30;;;;;;4147516;28;20103;-67
2021/08/28 03:19:24;;;;;;;1.40;0.50;;;31.50;96.50;;;;;;4173076;28;20132;-67
2021/08/28 03:21:29;;;;;;;1.75;0.55;;;31.60;96.00;;;;;;4170282;28;20060;-67
2021/08/28 03:23:35;;;;;;;2.72;0.60;;;31.70;95.40;;;;;;4184427;28;20074;-67
2021/08/28 03:25:40;;;;;;;2.35;0.43;;;31.70;95.10;;;;;;4149125;28;20684;-67
2021/08/28 03:27:44;;;;;;;0.77;0.30;;;31.70;95.20;;;;;;4159824;28;20049;-67
2021/08/28 03:29:53;;;;;;;2.70;0.60;;;31.80;94.70;;;;;;4137929;28;20045;-67
2021/08/28 03:31:59;;;;;;;0.88;0.65;;;31.80;95.20;;;;;;4168284;28;20128;-67
2021/08/28 03:34:04;;;;;;;0.80;0.35;;;31.80;95.40;;;;;;4168407;28;20061;-67
2021/08/28 03:36:10;;;;;;;0.93;0.73;;;31.70;95.30;;;;;;4152500;28;20057;-67
2021/08/28 03:38:15;;;;;;;1.45;0.50;;;31.60;95.30;;;;;;4141679;28;20049;-67
2021/08/28 03:40:19;;;;;;;1.38;0.57;;;31.60;95.00;;;;;;4135962;28;20493;-67
2021/08/28 03:42:27;;;;;;;2.38;0.47;;;31.50;95.20;;;;;;4167443;28;20528;-67
2021/08/28 03:44:31;;;;;;;1.95;0.65;;;31.50;95.20;;;;;;4173992;28;20053;-67
2021/08/28 03:46:36;;;;;;;1.83;0.63;;;31.40;95.10;;;;;;4151857;28;20591;-67
2021/08/28 03:48:40;;;;;;;1.25;0.77;;;31.50;95.30;;;;;;4140084;28;20128;-67
2021/08/28 03:50:45;;;;;;;1.25;0.40;;;31.60;95.30;;;;;;4142923;28;20125;-67
2021/08/28 03:52:49;;;;;;;0.88;0.40;;;31.60;95.20;;;;;;4166557;28;20404;-67
2021/08/28 03:54:54;;;;;;;0.98;0.50;;;31.60;95.30;;;;;;4149602;28;20058;-67
2021/08/28 03:56:58;;;;;;;3.45;0.75;;;31.70;95.00;;;;;;4163861;28;20508;-67
2021/08/28 03:59:03;;;;;;;14.02;1.23;;;31.70;94.80;;;;;;4128702;28;20140;-67
2021/08/28 04:01:09;;;;;;;5.75;0.70;;;31.60;94.90;;;;;;4177223;28;20087;-67
2021/08/28 04:03:16;;;;;;;2.83;0.68;;;31.50;94.60;;;;;;4148989;28;20527;-67
2021/08/28 04:05:21;;;;;;;3.33;0.82;;;31.60;94.60;;;;;;4148311;28;20045;-67
2021/08/28 04:07:25;;;;;;;2.97;0.95;;;31.60;94.60;;;;;;4139590;28;20127;-66
2021/08/28 04:09:30;;;;;;;2.95;1.00;;;31.60;94.70;;;;;;4138998;28;20648;-65
2021/08/28 04:11:35;;;;;;;4.05;0.98;;;31.60;95.00;;;;;;4163370;28;20040;-66
2021/08/28 04:13:39;;;;;;;5.93;1.02;;;31.60;95.70;;;;;;4150748;28;20057;-66
2021/08/28 04:15:44;;;;;;;2.75;0.75;;;31.70;95.50;;;;;;4153449;28;20585;-66
2021/08/28 04:17:54;;;;;;;1.75;0.63;;;31.90;95.10;;;;;;4142543;28;20057;-66
2021/08/28 04:20:00;;;;;;;1.48;0.60;;;32.00;94.40;;;;;;4173821;28;20053;-66
2021/08/28 04:22:05;;;;;;;1.35;0.70;;;32.00;94.60;;;;;;4149941;28;20420;-66
2021/08/28 04:24:30;;;;;;;1.95;0.68;;;32.00;94.30;;;;;;4161313;28;20519;-67
2021/08/28 04:26:46;;;;;;;2.47;0.70;;;32.20;94.60;;;;;;4157625;28;20403;-67
2021/08/28 04:28:53;;;;;;;1.50;0.80;;;32.30;94.60;;;;;;4136679;28;20140;-66
2021/08/28 04:30:59;;;;;;;4.78;1.05;;;32.40;93.90;;;;;;4143634;28;20447;-66
2021/08/28 04:33:04;;;;;;;1.80;0.77;;;32.50;93.40;;;;;;4185765;28;20128;-67
2021/08/28 04:35:10;;;;;;;2.28;0.73;;;32.60;92.90;;;;;;4149479;28;20080;-66
2021/08/28 04:37:17;;;;;;;0.93;0.50;;;32.60;93.00;;;;;;4143306;28;20064;-66
2021/08/28 04:39:22;;;;;;;1.60;0.50;;;32.30;92.90;;;;;;4157255;28;20049;-67
2021/08/28 04:41:31;;;;;;;1.55;0.70;;;32.30;93.30;;;;;;4151544;28;20057;-67
2021/08/28 04:43:36;;;;;;;1.55;0.70;;;32.30;93.20;;;;;;4184936;28;20669;-67
2021/08/28 04:45:53;;;;;;;5.07;0.70;;;32.30;93.20;;;;;;4169235;28;20049;-67
2021/08/28 04:48:03;;;;;;;2.72;0.73;;;32.30;93.30;;;;;;4142174;28;20077;-67
2021/08/28 04:50:11;;;;;;;2.25;0.60;;;32.50;93.00;;;;;;4164778;28;20055;-67
2021/08/28 04:52:16;;;;;;;2.22;0.90;;;32.70;93.10;;;;;;4137109;28;20109;-67
2021/08/28 04:54:21;;;;;;;2.05;0.70;;;32.50;92.90;;;;;;4150897;28;20049;-67
2021/08/28 04:56:27;;;;;;;1.75;0.60;;;32.30;92.80;;;;;;4149211;28;20064;-67
2021/08/28 04:58:33;;;;;;;1.15;0.70;;;32.30;93.00;;;;;;4170464;28;20719;-67
2021/08/28 05:00:57;;;;;;;4.80;0.60;;;32.30;93.10;;;;;;4166134;28;20095;-67
2021/08/28 05:03:14;;;;;;;1.38;0.60;;;32.30;92.80;;;;;;4161586;28;20183;-67
2021/08/28 05:05:19;;;;;;;1.05;0.60;;;32.30;92.80;;;;;;4168310;28;20473;-67
2021/08/28 05:07:23;;;;;;;3.45;0.90;;;32.30;92.70;;;;;;4158998;28;20041;-67
2021/08/28 05:09:35;;;;;;;3.83;1.05;;;32.30;91.80;;;;;;4140015;28;20044;-67
2021/08/28 05:11:40;;;;;;;2.63;0.98;;;32.40;90.70;;;;;;4149907;28;20065;-67
2021/08/28 05:13:45;;;;;;;1.92;0.60;;;32.50;91.10;;;;;;4162160;28;20522;-66
2021/08/28 05:15:50;;;;;;;1.27;0.50;;;32.60;91.10;;;;;;4151348;28;20135;-69
2021/08/28 05:17:54;;;;;;;1.25;0.60;;;32.60;91.50;;;;;;4133477;28;20496;-67
2021/08/28 05:20:00;;;;;;;0.90;0.50;;;32.60;91.20;;;;;;4130321;28;20452;-67
2021/08/28 05:22:24;;;;;;;1.20;0.43;;;32.70;90.70;;;;;;4156839;28;20049;-67
2021/08/28 05:24:49;;;;;;;0.77;0.50;;;32.80;90.90;;;;;;4165941;28;20047;-67
2021/08/28 05:26:53;;;;;;;1.92;0.63;;;32.80;91.20;;;;;;4150463;28;20045;-67
2021/08/28 05:28:58;;;;;;;1.50;0.50;;;33.00;91.30;;;;;;4137363;28;20084;-67
2021/08/28 05:31:03;;;;;;;0.75;0.50;;;33.10;91.10;;;;;;4143038;28;20046;-67
2021/08/28 05:33:08;;;;;;;1.00;0.57;;;33.20;90.50;;;;;;4138745;28;20053;-67
2021/08/28 05:35:13;;;;;;;3.83;0.47;;;33.10;90.50;;;;;;4143159;28;20676;-66
2021/08/28 05:37:37;;;;;;;3.17;0.80;;;33.00;90.50;;;;;;4158555;28;20064;-67
2021/08/28 05:39:45;;;;;;;5.50;1.15;;;32.90;91.20;;;;;;4138989;28;20053;-66
2021/08/28 05:41:52;;;;;;;2.13;0.60;;;32.70;91.80;;;;;;4140297;28;20051;-69
2021/08/28 05:43:56;;;;;;;1.23;0.40;;;32.60;92.20;;;;;;4148843;28;20124;-67
2021/08/28 05:46:10;;;;;;;2.05;0.55;;;32.50;92.40;;;;;;4149550;28;20063;-67
2021/08/28 05:48:27;;;;;;;1.17;0.45;;;32.40;92.80;;;;;;4158170;28;20090;-66
2021/08/28 05:50:32;;;;;;;3.33;0.90;;;32.30;92.80;;;;;;4171446;28;20124;-67
2021/08/28 05:52:37;;;;;;;1.15;0.80;;;32.30;92.80;;;;;;4147483;28;20041;-67
2021/08/28 05:54:41;;;;;;;1.42;0.60;;;32.20;92.70;;;;;;4163557;28;20044;-66
2021/08/28 05:56:46;;;;;;;0.88;0.70;;;32.20;92.90;;;;;;4143610;28;20049;-66
2021/08/28 05:58:51;;;;;;;2.13;0.57;;;32.20;92.80;;;;;;4141624;28;20041;-67
2021/08/28 06:00:55;;;;;;;2.15;0.90;;;32.20;92.90;;;;;;4149126;28;20053;-68
2021/08/28 06:03:01;;;;;;;3.08;0.90;;;32.10;93.10;;;;;;4174806;28;20070;-67
2021/08/28 06:05:08;;;;;;;1.80;0.80;;;32.10;93.10;;;;;;4133010;28;20061;-67
2021/08/28 06:07:25;;;;;;;3.88;1.35;;;32.20;92.90;;;;;;4150469;28;20057;-67
2021/08/28 06:09:42;;;;;;;1.63;0.50;;;32.20;93.40;;;;;;4150783;28;20215;-67
2021/08/28 06:11:58;;;;;;;3.50;0.85;;;32.30;93.10;;;;;;4156715;28;20506;-67
2021/08/28 06:14:15;;;;;;;2.78;0.93;;;32.40;92.90;;;;;;4163474;28;20127;-67
2021/08/28 06:16:25;;;;;;;3.10;1.10;;;32.60;92.80;;;;;;4152051;28;20156;-66
2021/08/28 06:18:38;;;;;;;2.30;0.93;;;32.60;92.70;;;;;;4130536;28;20100;-67
2021/08/28 06:20:42;;;;;;;0.93;0.63;;;32.50;92.70;;;;;;4139796;28;20120;-67
2021/08/28 06:22:47;;;;;;;1.00;0.45;;;32.60;93.00;;;;;;4146609;28;20076;-67
2021/08/28 06:24:54;;;;;;;0.90;0.50;;;32.80;92.30;;;;;;4182123;28;20086;-67
2021/08/28 06:26:59;;;;;;;1.70;0.68;;;32.80;92.10;;;;;;4148167;28;20091;-67
2021/08/28 06:29:05;;;;;;;3.45;0.70;;;32.70;92.20;;;;;;4138334;28;20544;-67
2021/08/28 06:31:11;;;;;;;5.07;0.82;;;32.80;92.30;;;;;;4147614;28;20053;-67
2021/08/28 06:33:15;;;;;;;2.05;0.88;;;32.90;92.10;;;;;;4148745;28;20128;-67
2021/08/28 06:35:20;;;;;;;1.27;0.70;;;33.10;91.70;;;;;;4150168;28;20252;-67
2021/08/28 06:37:25;;;;;;;1.70;0.65;;;33.10;91.70;;;;;;4145819;28;20057;-66
2021/08/28 06:39:41;;;;;;;2.90;0.90;;;33.30;91.60;;;;;;4156250;28;20132;-67
2021/08/28 06:41:58;;;;;;;1.23;0.50;;;33.30;91.70;;;;;;4162013;28;20056;-67
2021/08/28 06:44:16;;;;;;;3.75;1.02;;;33.50;91.30;;;;;;4168257;28;20053;-67
2021/08/28 06:46:40;;;;;;;4.72;1.27;;;33.50;90.10;;;;;;4159906;28;20053;-67
2021/08/28 06:48:57;;;;;;;1.42;0.43;;;33.50;90.30;;;;;;4145476;28;20439;-67
2021/08/28 06:51:15;;;;;;;1.35;0.70;;;33.60;90.40;;;;;;4153660;28;20346;-67
2021/08/28 06:53:31;;;;;;;0.63;0.40;;;33.60;89.60;;;;;;4160049;28;20140;-67
2021/08/28 06:55:55;;;;;;;0.68;0.40;;;33.60;88.90;;;;;;4156371;28;20045;-67
2021/08/28 06:58:12;;;;;;;1.38;0.40;;;33.50;89.80;;;;;;4156247;28;20038;-67
2021/08/28 07:00:30;;;;;;;0.80;0.40;;;33.60;89.40;;;;;;4162765;28;20123;-67
2021/08/28 07:02:47;;;;;;;1.83;0.50;;;33.80;89.00;;;;;;4161919;28;20041;-67
2021/08/28 07:04:52;;;;;;;2.05;0.63;;;33.80;89.10;;;;;;4150826;28;20568;-67
2021/08/28 07:07:05;;;;;;;1.08;0.45;;;34.00;88.50;;;;;;4145320;28;20124;-67
2021/08/28 07:09:10;;;;;;;1.80;0.40;;;34.00;88.20;;;;;;4138802;28;20041;-67
2021/08/28 07:11:15;;;;;;;2.83;0.60;;;34.00;88.00;;;;;;4167341;28;20482;-67
2021/08/28 07:13:20;;;;;;;1.80;0.63;;;34.10;87.80;;;;;;4146029;28;20529;-67
2021/08/28 07:15:25;;;;;;;0.45;0.20;;;34.10;87.50;;;;;;4151536;28;20061;-67
2021/08/28 07:17:30;;;;;;;0.95;0.30;;;34.20;87.10;;;;;;4162890;28;20053;-66
2021/08/28 07:19:35;;;;;;;1.95;0.70;;;34.10;88.20;;;;;;4139958;28;20107;-67
2021/08/28 07:21:39;;;;;;;2.28;0.75;;;33.90;88.10;;;;;;4150917;28;20049;-67
2021/08/28 07:23:46;;;;;;;2.13;1.00;;;33.80;87.90;;;;;;4162581;28;20045;-66
2021/08/28 07:26:11;;;;;;;1.65;0.90;;;33.80;87.50;;;;;;4153875;28;20049;-67
2021/08/28 07:28:18;;;;;;;2.25;0.70;;;33.80;87.20;;;;;;4137641;28;20451;-67
2021/08/28 07:30:35;;;;;;;3.83;0.55;;;33.80;86.80;;;;;;4160117;28;20045;-67
2021/08/28 07:32:39;;;;;;;3.15;1.63;;;33.80;85.70;;;;;;4140997;28;20057;-68
2021/08/28 07:34:44;;;;;;;3.15;1.10;;;33.80;85.90;;;;;;4132957;28;20042;-67
2021/08/28 07:36:49;;;;;;;2.25;1.10;;;33.80;84.90;;;;;;4166619;28;20064;-66
2021/08/28 07:38:54;;;;;;;1.45;0.90;;;34.00;85.40;;;;;;4134326;28;20052;-66
2021/08/28 07:40:58;;;;;;;1.33;0.75;;;34.10;85.20;;;;;;4165377;28;20591;-67
2021/08/28 07:43:03;;;;;;;0.80;0.50;;;34.20;84.00;;;;;;4148241;28;20619;-66
2021/08/28 07:45:14;;;;;;;1.65;0.50;;;34.20;83.50;;;;;;4151212;28;20069;-66
2021/08/28 07:47:36;;;;;;;0.93;0.52;;;34.20;83.50;;;;;;4145555;28;20754;-67
2021/08/28 07:49:41;;;;;;;3.08;1.20;;;34.20;84.40;;;;;;4177406;28;20045;-68
2021/08/28 07:51:45;;;;;;;2.75;1.17;;;34.10;84.90;;;;;;4148494;28;20156;-67
2021/08/28 07:53:51;;;;;;;3.33;2.00;;;33.80;85.30;;;;;;4147289;28;20049;-66
2021/08/28 07:55:55;;;;;;;3.47;1.60;;;33.70;85.90;;;;;;4161396;28;20377;-67
2021/08/28 07:57:59;;;;;;;2.70;1.23;;;33.60;86.60;;;;;;4177649;28;20067;-66
2021/08/28 08:00:05;;;;;;;3.70;1.35;;;33.70;87.00;;;;;;4144685;28;20053;-66
2021/08/28 08:02:15;;;;;;;3.15;1.52;;;33.60;86.90;;;;;;4153998;28;20049;-66
2021/08/28 08:04:20;;;;;;;3.80;2.35;;;33.60;86.70;;;;;;4180501;28;20045;-66
2021/08/28 08:06:45;;;;;;;2.92;1.88;;;33.30;87.20;;;;;;4160692;28;20499;-66
2021/08/28 08:09:02;;;;;;;3.28;1.90;;;33.30;87.50;;;;;;4155273;28;20049;-66
2021/08/28 08:11:18;;;;;;;3.65;1.70;;;33.40;87.70;;;;;;4165474;28;20048;-66
2021/08/28 08:13:35;;;;;;;2.63;1.33;;;33.30;88.10;;;;;;4166248;28;20127;-66
2021/08/28 08:15:54;;;;;;;1.65;1.00;;;33.20;88.10;;;;;;4165410;28;20095;-66
2021/08/28 08:18:11;;;;;;;1.58;0.90;;;33.10;88.40;;;;;;4148677;28;21287;-66
2021/08/28 08:20:29;;;;;;;1.90;0.90;;;33.10;88.70;;;;;;4162342;28;20551;-66
2021/08/28 08:22:44;;;;;;;2.90;0.80;;;33.10;88.10;;;;;;4160980;28;20049;-66
2021/08/28 08:25:08;;;;;;;2.90;0.85;;;33.00;88.70;;;;;;4158470;28;20045;-66
2021/08/28 08:27:24;;;;;;;3.90;2.63;;;33.00;89.00;;;;;;4151202;28;20102;-66
2021/08/28 08:29:38;;;;;;;3.13;2.08;;;33.00;88.40;;;;;;4146624;28;20523;-66
2021/08/28 08:31:59;;;;;;;2.65;1.67;;;33.10;88.50;;;;;;4151094;28;20041;-66
2021/08/28 08:34:10;;;;;;;3.70;1.75;;;33.00;88.90;;;;;;4148145;28;20573;-67
2021/08/28 08:36:17;;;;;;;1.90;1.30;;;33.10;89.10;;;;;;4148588;28;20080;-66
2021/08/28 08:38:21;;;;;;;3.47;1.17;;;33.10;89.00;;;;;;4138629;28;20087;-66
2021/08/28 08:40:26;;;;;;;2.22;0.70;;;33.00;89.20;;;;;;4171941;28;20616;-66
2021/08/28 08:42:31;;;;;;;2.00;0.90;;;32.90;89.30;;;;;;4142814;28;20046;-66
2021/08/28 08:44:36;;;;;;;1.33;0.55;;;32.90;89.50;;;;;;4146913;28;20447;-66
2021/08/28 08:46:41;;;;;;;1.20;0.80;;;33.00;89.80;;;;;;4149753;28;20095;-66
2021/08/28 08:48:48;;;;;;;1.42;0.70;;;32.90;90.00;;;;;;4158006;28;20044;-66
2021/08/28 08:50:53;;;;;;;1.70;1.02;;;32.80;90.20;;;;;;4162188;28;20037;-66
2021/08/28 08:53:03;;;;;;;3.58;1.00;;;32.80;90.40;;;;;;4147411;28;20443;-66
2021/08/28 08:55:18;;;;;;;3.95;0.93;;;32.90;90.30;;;;;;4145612;28;20042;-66
2021/08/28 08:57:43;;;;;;;1.95;0.82;;;32.80;90.40;;;;;;4142425;28;20052;-67
2021/08/28 08:59:47;;;;;;;2.15;0.90;;;32.80;90.30;;;;;;4140395;28;20059;-67
2021/08/28 09:01:52;;;;;;;2.78;1.45;;;32.80;90.30;;;;;;4161557;28;20037;-66
2021/08/28 09:04:10;;;;;;;2.97;1.40;;;32.80;90.40;;;;;;4150421;28;20053;-66
2021/08/28 09:06:15;;;;;;;2.10;0.80;;;32.70;90.60;;;;;;4131444;28;20160;-66
2021/08/28 09:08:22;;;;;;;1.17;0.75;;;32.80;90.60;;;;;;4131141;28;20033;-67
2021/08/28 09:10:27;;;;;;;1.33;1.00;;;32.80;90.60;;;;;;4153835;28;20462;-66
2021/08/28 09:12:40;;;;;;;2.10;0.90;;;32.80;90.50;;;;;;4158481;28;20328;-66
2021/08/28 09:14:57;;;;;;;23.40;12.82;;;32.80;90.50;;;;;;4153433;28;20045;-66
2021/08/28 09:17:18;;;;;;;10.10;5.95;;;32.80;91.10;;;;;;4165501;28;20115;-66
2021/08/28 09:19:35;;;;;;;10.38;6.30;;;32.90;91.00;;;;;;4154047;28;20152;-66
2021/08/28 09:21:40;;;;;;;8.50;3.80;;;32.80;91.00;;;;;;4150857;28;20468;-66
2021/08/28 09:23:44;;;;;;;6.85;3.13;;;32.80;90.70;;;;;;4160522;28;20064;-66
2021/08/28 09:25:52;;;;;;;5.40;2.10;;;32.80;90.70;;;;;;4164546;28;20052;-66
2021/08/28 09:27:57;;;;;;;11.52;3.00;;;32.80;90.50;;;;;;4153479;28;20053;-66
2021/08/28 09:30:01;;;;;;;7.40;1.95;;;32.70;90.50;;;;;;4164489;28;20044;-66
2021/08/28 09:32:07;;;;;;;4.22;1.50;;;32.70;90.50;;;;;;4167529;28;20049;-66
2021/08/28 09:34:31;;;;;;;3.75;1.70;;;32.60;90.40;;;;;;4162824;28;20049;-66
2021/08/28 09:36:38;;;;;;;8.80;2.30;;;32.60;90.60;;;;;;4160321;28;20635;-66
2021/08/28 09:38:42;;;;;;;9.05;2.80;;;32.60;90.60;;;;;;4153962;28;20603;-66
2021/08/28 09:40:48;;;;;;;9.73;2.53;;;32.60;90.00;;;;;;4164138;28;20132;-66
2021/08/28 09:42:54;;;;;;;12.15;3.13;;;32.50;90.20;;;;;;4151238;28;20481;-67
2021/08/28 09:44:58;;;;;;;10.85;2.83;;;32.60;90.00;;;;;;4172137;28;20057;-66
2021/08/28 09:47:15;;;;;;;11.05;2.53;;;32.60;90.00;;;;;;4168076;28;20041;-67
2021/08/28 09:49:23;;;;;;;11.77;3.15;;;32.60;89.90;;;;;;4157138;28;20056;-66
2021/08/28 09:51:44;;;;;;;7.47;1.80;;;32.50;89.90;;;;;;4161492;28;20384;-66
2021/08/28 09:54:00;;;;;;;7.68;2.08;;;32.50;89.90;;;;;;4148188;28;20519;-66
2021/08/28 09:56:07;;;;;;;7.40;1.17;;;32.40;89.80;;;;;;4180954;28;20052;-66
2021/08/28 09:58:12;;;;;;;4.95;1.15;;;32.50;89.80;;;;;;4161870;28;20045;-67
2021/08/28 10:00:16;;;;;;;5.63;1.35;;;32.50;89.60;;;;;;4164436;28;20114;-66
2021/08/28 10:02:22;;;;;;;4.70;1.40;;;32.50;89.40;;;;;;4162467;28;20650;-66
2021/08/28 10:04:27;;;;;;;2.53;1.40;;;32.40;89.20;;;;;;4162450;28;20550;-66
2021/08/28 10:06:31;;;;;;;2.65;1.27;;;32.50;89.30;;;;;;4158730;28;20041;-66
2021/08/28 10:08:36;;;;;;;5.75;2.85;;;32.40;89.50;;;;;;4157272;28;20136;-66
2021/08/28 10:10:40;;;;;;;152.25;23.42;;;32.40;90.00;;;;;;4157903;28;20518;-67
2021/08/28 10:13:05;;;;;;;153.60;23.73;;;32.30;90.20;;;;;;4155583;28;20099;-66
2021/08/28 10:15:10;;;;;;;40.58;6.47;;;32.30;90.40;;;;;;4169866;28;20094;-66
2021/08/28 10:17:16;;;;;;;22.10;5.18;;;32.20;90.40;;;;;;4161170;28;20050;-66
2021/08/28 10:19:21;;;;;;;19.13;4.28;;;32.20;90.60;;;;;;4145961;28;20080;-66
2021/08/28 10:21:25;;;;;;;24.08;5.75;;;32.20;90.80;;;;;;4158949;28;20132;-66
2021/08/28 10:23:31;;;;;;;13.27;4.00;;;32.10;91.30;;;;;;4156097;28;20400;-65
2021/08/28 10:25:41;;;;;;;5.47;2.17;;;32.10;91.30;;;;;;4159437;28;20421;-65
2021/08/28 10:27:46;;;;;;;6.78;2.15;;;32.00;91.40;;;;;;4131038;28;20069;-66
2021/08/28 10:29:51;;;;;;;3.45;1.33;;;31.90;91.50;;;;;;4156159;28;20471;-65
2021/08/28 10:31:56;;;;;;;4.53;1.63;;;31.90;91.50;;;;;;4162790;28;20401;-65
2021/08/28 10:34:00;;;;;;;5.10;1.75;;;31.90;91.50;;;;;;4162718;28;20427;-66
2021/08/28 10:36:10;;;;;;;2.03;0.93;;;31.90;91.40;;;;;;4156955;28;20052;-67
2021/08/28 10:38:14;;;;;;;6.05;1.13;;;31.90;91.50;;;;;;4152696;28;20519;-66
2021/08/28 10:40:26;;;;;;;9.40;2.35;;;32.00;91.50;;;;;;4129136;28;20074;-67
2021/08/28 10:42:32;;;;;;;9.88;1.98;;;32.00;91.60;;;;;;4158385;28;20119;-66
2021/08/28 10:44:37;;;;;;;7.97;1.98;;;31.90;91.80;;;;;;4161405;28;20041;-66
2021/08/28 10:46:42;;;;;;;10.25;2.60;;;31.90;91.80;;;;;;4146348;28;20058;-66
2021/08/28 10:48:55;;;;;;;9.00;2.88;;;31.90;91.90;;;;;;4167127;28;20094;-66
2021/08/28 10:51:01;;;;;;;10.57;3.33;;;31.90;92.00;;;;;;4150404;28;20500;-66
2021/08/28 10:53:06;;;;;;;15.60;3.92;;;31.90;91.90;;;;;;4163032;28;20040;-66
2021/08/28 10:55:12;;;;;;;9.13;2.75;;;31.70;92.50;;;;;;4158816;28;20079;-67
2021/08/28 10:57:25;;;;;;;6.25;2.28;;;31.80;92.30;;;;;;4150108;28;21136;-67
2021/08/28 10:59:31;;;;;;;6.53;1.77;;;31.70;92.00;;;;;;4149479;28;20051;-67
2021/08/28 11:02:00;;;;;;;5.53;2.35;;;31.70;92.30;;;;;;4168355;28;20110;-66
2021/08/28 11:04:30;;;;;;;9.55;2.90;;;31.60;92.60;;;;;;4160452;28;20559;-66
2021/08/28 11:06:34;;;;;;;7.97;2.70;;;31.60;92.70;;;;;;4155739;28;20128;-66
2021/08/28 11:09:04;;;;;;;6.97;2.60;;;31.60;92.70;;;;;;4156210;28;20045;-66
2021/08/28 11:11:23;;;;;;;5.95;1.73;;;31.60;92.70;;;;;;4161258;28;20482;-66
2021/08/28 11:13:55;;;;;;;5.05;1.52;;;31.40;93.10;;;;;;4155276;28;20056;-66